San Lorenzo, CA

1:23 AM PDT on June 03, 2015 (GMT -0700)
Cherryland | | Change Station
CLOSE
Current Station
Personal Weather Station
Location: Hayward, CA
Elevation: 62 ft
Nearby Weather Stations

Elev 62 ft 37.67 °N, 122.10 °W | Updated 1 minute ago

Overcast
Overcast
56.3 °F
Feels Like 56.3 °F
N
9.4
Wind Variable Wind from SSW

Today
High -- | Low -- °F
--% Chance of Precip.
Yesterday
High -- | Low -- °F
Precip. -- in
5:47 AM 8:25 PM
Waxing Gibbous, 99% visible
Pressure 30.00 in
Visibility 10.0 miles
Clouds Overcast 1400 ft
Dew Point 53 °F
Humidity 88%
Rainfall 0.00 in
Snow Depth Not available.
UV 0 out of 12
Pollen 5.80 out of 12
Air Quality Not available.
Flu Activity Sporadic
METAR KHWD 030754Z AUTO 21008KT 10SM OVC014 14/11 A2997 RMK AO2 SLP159 T01390111 401830139

More Conditions Fewer Conditions

Pressure 30.00 in
Visibility 10.0 miles
Clouds Overcast 1400 ft
Dew Point 53 °F
Humidity 88%
Rainfall 0.00 in
Snow Depth Not available.
UV 0 out of 12
Pollen 5.80 out of 12
Air Quality Not available.
Flu Activity Sporadic
METAR KHWD 030754Z AUTO 21008KT 10SM OVC014 14/11 A2997 RMK AO2 SLP159 T01390111 401830139

More Conditions Fewer Conditions

10-Day Weather Forecast

Almanac

Astronomy

Jun. 03, 2015 Rise Set
Actual Time
Civil Twilight
Nautical Twilight
Astronomical Twilight
Moon
Length of Visible Light
Length of Day
Tomorrow will be .
, % of the Moon is Illuminated

Today's Extremes

State Highs State Lows

Community

WunderPhotos

Upload Photos

1,826,194 photos uploaded!

WunderBlogs® & News

Nearby

Air Quality

  Air Quality AQ Index Pollutant
Not available.

Snow Depth

Station Depth Elevation

Earthquake Activity

City Distance Mag. Time & Date
Minimum magnitude displayed is 2.5.

Coastal Water Temperatures

Place Temperature

Stations

Nearby Weather Stations

Station Location Temp. Windchill Dew Point Humidity Wind Precip. Elev Updated Type